sensor_id;sensor_type;location;lat;lon;timestamp;pressure;altitude;pressure_sealevel;temperature;humidity
45941;BME280;31858;46.008;8.978;2023-05-01T00:04:57;94556.63;;;10.63;100.00
45941;BME280;31858;46.008;8.978;2023-05-01T00:15:00;94566.88;;;10.58;100.00
45941;BME280;31858;46.008;8.978;2023-05-01T00:25:02;94546.38;;;10.69;100.00
45941;BME280;31858;46.008;8.978;2023-05-01T00:35:05;94539.63;;;10.82;100.00
45941;BME280;31858;46.008;8.978;2023-05-01T00:45:08;94538.78;;;10.67;100.00
45941;BME280;31858;46.008;8.978;2023-05-01T00:55:11;94540.94;;;10.51;100.00
45941;BME280;31858;46.008;8.978;2023-05-01T01:05:12;94551.66;;;10.58;100.00
45941;BME280;31858;46.008;8.978;2023-05-01T01:15:19;94559.28;;;10.60;100.00
45941;BME280;31858;46.008;8.978;2023-05-01T01:25:46;94546.38;;;10.65;100.00
45941;BME280;31858;46.008;8.978;2023-05-01T01:35:55;94534.56;;;10.63;100.00
45941;BME280;31858;46.008;8.978;2023-05-01T01:46:01;94533.78;;;10.62;100.00
45941;BME280;31858;46.008;8.978;2023-05-01T01:56:06;94533.41;;;10.64;100.00
45941;BME280;31858;46.008;8.978;2023-05-01T02:06:09;94528.03;;;10.57;100.00
45941;BME280;31858;46.008;8.978;2023-05-01T02:16:14;94526.50;;;10.56;100.00
45941;BME280;31858;46.008;8.978;2023-05-01T02:26:17;94501.78;;;10.59;100.00
45941;BME280;31858;46.008;8.978;2023-05-01T02:36:22;94496.50;;;10.66;100.00
45941;BME280;31858;46.008;8.978;2023-05-01T02:46:25;94495.75;;;10.65;100.00
45941;BME280;31858;46.008;8.978;2023-05-01T02:56:29;94486.19;;;10.61;100.00
45941;BME280;31858;46.008;8.978;2023-05-01T03:06:31;94483.94;;;10.63;100.00
45941;BME280;31858;46.008;8.978;2023-05-01T03:16:34;94477.44;;;10.60;100.00
45941;BME280;31858;46.008;8.978;2023-05-01T03:26:35;94466.38;;;10.58;100.00
45941;BME280;31858;46.008;8.978;2023-05-01T03:36:38;94458.00;;;10.56;100.00
45941;BME280;31858;46.008;8.978;2023-05-01T03:46:40;94463.72;;;10.55;100.00
45941;BME280;31858;46.008;8.978;2023-05-01T03:56:43;94464.06;;;10.50;100.00
45941;BME280;31858;46.008;8.978;2023-05-01T04:06:44;94456.81;;;10.46;100.00
45941;BME280;31858;46.008;8.978;2023-05-01T04:16:49;94443.84;;;10.41;100.00
45941;BME280;31858;46.008;8.978;2023-05-01T04:26:51;94453.72;;;10.37;100.00
45941;BME280;31858;46.008;8.978;2023-05-01T04:36:54;94459.81;;;10.34;100.00
45941;BME280;31858;46.008;8.978;2023-05-01T04:46:56;94467.41;;;10.36;100.00
45941;BME280;31858;46.008;8.978;2023-05-01T04:56:59;94452.56;;;10.31;100.00
45941;BME280;31858;46.008;8.978;2023-05-01T05:07:02;94471.59;;;10.33;100.00
45941;BME280;31858;46.008;8.978;2023-05-01T05:17:05;94476.91;;;10.30;100.00
45941;BME280;31858;46.008;8.978;2023-05-01T05:27:07;94479.53;;;10.26;100.00
45941;BME280;31858;46.008;8.978;2023-05-01T05:37:10;94501.94;;;10.22;100.00
45941;BME280;31858;46.008;8.978;2023-05-01T05:47:11;94499.31;;;10.25;100.00
45941;BME280;31858;46.008;8.978;2023-05-01T05:57:14;94499.69;;;10.27;100.00
45941;BME280;31858;46.008;8.978;2023-05-01T06:07:16;94514.53;;;10.28;100.00
45941;BME280;31858;46.008;8.978;2023-05-01T06:17:19;94517.84;;;10.18;100.00
45941;BME280;31858;46.008;8.978;2023-05-01T06:27:20;94525.53;;;9.82;100.00
45941;BME280;31858;46.008;8.978;2023-05-01T06:37:23;94532.06;;;9.89;100.00
45941;BME280;31858;46.008;8.978;2023-05-01T06:47:25;94543.97;;;10.02;100.00
45941;BME280;31858;46.008;8.978;2023-05-01T06:57:28;94548.28;;;10.17;100.00
45941;BME280;31858;46.008;8.978;2023-05-01T07:07:30;94549.03;;;10.18;100.00
45941;BME280;31858;46.008;8.978;2023-05-01T07:17:33;94548.34;;;10.21;100.00
45941;BME280;31858;46.008;8.978;2023-05-01T07:27:35;94546.91;;;10.30;100.00
45941;BME280;31858;46.008;8.978;2023-05-01T07:37:38;94550.72;;;10.33;100.00
45941;BME280;31858;46.008;8.978;2023-05-01T07:47:39;94547.69;;;10.34;100.00
45941;BME280;31858;46.008;8.978;2023-05-01T07:57:42;94552.28;;;10.41;100.00
45941;BME280;31858;46.008;8.978;2023-05-01T08:07:44;94558.81;;;10.51;100.00
45941;BME280;31858;46.008;8.978;2023-05-01T08:17:47;94570.66;;;10.57;100.00
45941;BME280;31858;46.008;8.978;2023-05-01T08:27:50;94581.44;;;10.71;100.00
45941;BME280;31858;46.008;8.978;2023-05-01T08:37:53;94588.44;;;10.93;100.00
45941;BME280;31858;46.008;8.978;2023-05-01T08:47:55;94595.75;;;11.07;100.00
45941;BME280;31858;46.008;8.978;2023-05-01T08:58:21;94593.50;;;11.13;100.00
45941;BME280;31858;46.008;8.978;2023-05-01T09:08:25;94602.72;;;11.26;100.00
45941;BME280;31858;46.008;8.978;2023-05-01T09:18:28;94605.03;;;11.31;100.00
45941;BME280;31858;46.008;8.978;2023-05-01T09:28:40;94618.41;;;11.41;100.00
45941;BME280;31858;46.008;8.978;2023-05-01T09:38:43;94620.38;;;11.48;100.00
45941;BME280;31858;46.008;8.978;2023-05-01T09:48:52;94621.16;;;11.52;100.00
45941;BME280;31858;46.008;8.978;2023-05-01T09:58:57;94611.56;;;11.40;100.00
45941;BME280;31858;46.008;8.978;2023-05-01T10:08:59;94607.31;;;11.29;100.00
45941;BME280;31858;46.008;8.978;2023-05-01T10:19:02;94593.22;;;11.32;100.00
45941;BME280;31858;46.008;8.978;2023-05-01T10:29:04;94599.38;;;11.47;100.00
45941;BME280;31858;46.008;8.978;2023-05-01T10:39:30;94579.91;;;11.39;100.00
45941;BME280;31858;46.008;8.978;2023-05-01T11:00:11;94551.34;;;11.43;100.00
45941;BME280;31858;46.008;8.978;2023-05-01T11:10:26;94538.31;;;11.24;100.00
45941;BME280;31858;46.008;8.978;2023-05-01T11:20:48;94523.78;;;11.10;100.00
45941;BME280;31858;46.008;8.978;2023-05-01T11:30:50;94515.03;;;11.14;100.00
45941;BME280;31858;46.008;8.978;2023-05-01T11:40:56;94496.72;;;11.08;100.00
45941;BME280;31858;46.008;8.978;2023-05-01T11:50:58;94494.47;;;11.14;100.00
45941;BME280;31858;46.008;8.978;2023-05-01T12:01:01;94489.13;;;11.14;100.00
45941;BME280;31858;46.008;8.978;2023-05-01T12:11:03;94484.88;;;11.02;100.00
45941;BME280;31858;46.008;8.978;2023-05-01T12:21:14;94471.94;;;11.04;100.00
45941;BME280;31858;46.008;8.978;2023-05-01T12:31:16;94456.69;;;11.01;100.00
45941;BME280;31858;46.008;8.978;2023-05-01T12:41:31;94472.38;;;11.17;100.00
45941;BME280;31858;46.008;8.978;2023-05-01T12:51:32;94471.66;;;11.31;100.00
45941;BME280;31858;46.008;8.978;2023-05-01T13:01:36;94464.06;;;11.40;100.00
45941;BME280;31858;46.008;8.978;2023-05-01T13:11:38;94452.25;;;11.37;100.00
45941;BME280;31858;46.008;8.978;2023-05-01T13:21:49;94444.63;;;11.43;100.00
45941;BME280;31858;46.008;8.978;2023-05-01T13:31:51;94433.59;;;11.44;100.00
45941;BME280;31858;46.008;8.978;2023-05-01T13:41:55;94409.94;;;11.43;100.00
45941;BME280;31858;46.008;8.978;2023-05-01T13:51:56;94408.81;;;11.48;100.00
45941;BME280;31858;46.008;8.978;2023-05-01T14:01:59;94405.00;;;11.52;100.00
45941;BME280;31858;46.008;8.978;2023-05-01T14:12:01;94405.00;;;11.52;100.00
45941;BME280;31858;46.008;8.978;2023-05-01T14:22:06;94400.06;;;11.58;100.00
45941;BME280;31858;46.008;8.978;2023-05-01T14:32:08;94409.22;;;11.53;100.00
45941;BME280;31858;46.008;8.978;2023-05-01T14:42:12;94406.53;;;11.46;100.00
45941;BME280;31858;46.008;8.978;2023-05-01T14:52:18;94410.72;;;11.47;100.00
45941;BME280;31858;46.008;8.978;2023-05-01T15:02:21;94402.72;;;11.43;100.00
45941;BME280;31858;46.008;8.978;2023-05-01T15:12:23;94408.81;;;11.37;100.00
45941;BME280;31858;46.008;8.978;2023-05-01T15:22:26;94414.91;;;11.34;100.00
45941;BME280;31858;46.008;8.978;2023-05-01T15:32:27;94409.94;;;11.36;100.00
45941;BME280;31858;46.008;8.978;2023-05-01T15:42:30;94409.97;;;11.54;100.00
45941;BME280;31858;46.008;8.978;2023-05-01T15:52:32;94413.78;;;11.60;100.00
45941;BME280;31858;46.008;8.978;2023-05-01T16:02:36;94412.28;;;11.62;100.00
45941;BME280;31858;46.008;8.978;2023-05-01T16:12:38;94412.25;;;11.59;100.00
45941;BME280;31858;46.008;8.978;2023-05-01T16:22:41;94408.44;;;11.56;100.00
45941;BME280;31858;46.008;8.978;2023-05-01T16:32:43;94405.00;;;11.45;100.00
45941;BME280;31858;46.008;8.978;2023-05-01T16:42:50;94418.34;;;11.45;100.00
45941;BME280;31858;46.008;8.978;2023-05-01T16:52:52;94408.81;;;11.37;100.00
45941;BME280;31858;46.008;8.978;2023-05-01T17:02:55;94402.31;;;11.31;100.00
45941;BME280;31858;46.008;8.978;2023-05-01T17:12:59;94405.34;;;11.19;100.00
45941;BME280;31858;46.008;8.978;2023-05-01T17:23:02;94409.50;;;11.09;100.00
45941;BME280;31858;46.008;8.978;2023-05-01T17:33:04;94410.25;;;11.02;100.00
45941;BME280;31858;46.008;8.978;2023-05-01T17:43:07;94407.16;;;10.93;100.00
45941;BME280;31858;46.008;8.978;2023-05-01T17:53:09;94407.91;;;10.90;100.00
45941;BME280;31858;46.008;8.978;2023-05-01T18:03:12;94417.03;;;10.82;100.00
45941;BME280;31858;46.008;8.978;2023-05-01T18:13:14;94413.25;;;10.90;100.00
45941;BME280;31858;46.008;8.978;2023-05-01T18:23:18;94412.03;;;10.73;100.00
45941;BME280;31858;46.008;8.978;2023-05-01T18:33:19;94421.84;;;10.55;100.00
45941;BME280;31858;46.008;8.978;2023-05-01T18:43:23;94430.53;;;10.41;100.00
45941;BME280;31858;46.008;8.978;2023-05-01T18:53:24;94441.97;;;10.45;100.00
45941;BME280;31858;46.008;8.978;2023-05-01T19:03:27;94452.56;;;10.31;100.00
45941;BME280;31858;46.008;8.978;2023-05-01T19:13:29;94438.16;;;10.46;100.00
45941;BME280;31858;46.008;8.978;2023-05-01T19:23:32;94458.59;;;10.25;100.00
45941;BME280;31858;46.008;8.978;2023-05-01T19:33:36;94460.88;;;10.23;100.00
45941;BME280;31858;46.008;8.978;2023-05-01T19:43:39;94476.84;;;10.23;100.00
45941;BME280;31858;46.008;8.978;2023-05-01T19:53:41;94468.78;;;10.19;100.00
45941;BME280;31858;46.008;8.978;2023-05-01T20:03:45;94470.66;;;10.15;100.00
45941;BME280;31858;46.008;8.978;2023-05-01T20:13:46;94477.16;;;10.18;100.00
45941;BME280;31858;46.008;8.978;2023-05-01T20:23:49;94491.97;;;10.15;100.00
45941;BME280;31858;46.008;8.978;2023-05-01T20:33:51;94486.22;;;10.09;100.00
45941;BME280;31858;46.008;8.978;2023-05-01T20:43:54;94490.34;;;10.03;100.00
45941;BME280;31858;46.008;8.978;2023-05-01T20:53:56;94497.16;;;9.97;100.00
45941;BME280;31858;46.008;8.978;2023-05-01T21:03:59;94478.47;;;9.90;100.00
45941;BME280;31858;46.008;8.978;2023-05-01T21:14:00;94447.69;;;9.93;100.00
45941;BME280;31858;46.008;8.978;2023-05-01T21:24:06;94467.38;;;9.85;100.00
45941;BME280;31858;46.008;8.978;2023-05-01T21:34:08;94449.78;;;9.73;100.00
45941;BME280;31858;46.008;8.978;2023-05-01T21:44:11;94451.34;;;9.77;100.00
45941;BME280;31858;46.008;8.978;2023-05-01T21:54:15;94434.72;;;9.88;100.00
45941;BME280;31858;46.008;8.978;2023-05-01T22:04:18;94453.44;;;9.54;100.00
45941;BME280;31858;46.008;8.978;2023-05-01T22:14:20;94457.63;;;9.55;100.00
45941;BME280;31858;46.008;8.978;2023-05-01T22:24:23;94468.66;;;9.57;100.00
45941;BME280;31858;46.008;8.978;2023-05-01T22:34:24;94445.25;;;9.73;100.00
45941;BME280;31858;46.008;8.978;2023-05-01T22:44:27;94436.78;;;9.61;100.00
45941;BME280;31858;46.008;8.978;2023-05-01T22:54:29;94438.22;;;9.55;100.00
45941;BME280;31858;46.008;8.978;2023-05-01T23:04:31;94455.28;;;9.50;100.00
45941;BME280;31858;46.008;8.978;2023-05-01T23:14:44;94475.09;;;9.56;100.00
45941;BME280;31858;46.008;8.978;2023-05-01T23:24:48;94474.69;;;9.54;100.00
45941;BME280;31858;46.008;8.978;2023-05-01T23:34:50;94479.63;;;9.52;100.00
45941;BME280;31858;46.008;8.978;2023-05-01T23:44:54;94473.53;;;9.52;100.00
45941;BME280;31858;46.008;8.978;2023-05-01T23:54:55;94467.13;;;9.56;100.00
